createdAt,value
2023-05-12T00:01:47.056Z,98660.81
2023-05-12T00:04:14.148Z,98661.88
2023-05-12T00:06:41.204Z,98662.33
2023-05-12T00:09:08.096Z,98662.23
2023-05-12T00:11:35.134Z,98656.33
2023-05-12T00:14:02.537Z,98658.46
2023-05-12T00:16:29.886Z,98663.52
2023-05-12T00:18:56.987Z,98662.60
2023-05-12T00:21:24.253Z,98663.69
2023-05-12T00:23:51.337Z,98665.59
2023-05-12T00:26:18.385Z,98666.49
2023-05-12T00:28:45.652Z,98668.29
2023-05-12T00:31:12.592Z,98663.63
2023-05-12T00:33:39.815Z,98665.86
2023-05-12T00:36:07.374Z,98659.60
2023-05-12T00:38:34.975Z,98661.22
2023-05-12T00:41:02.420Z,98662.38
2023-05-12T00:43:30.188Z,98665.28
2023-05-12T00:45:57.397Z,98660.95
2023-05-12T00:48:24.864Z,98663.58
2023-05-12T00:50:52.208Z,98664.05
2023-05-12T00:53:19.297Z,98661.27
2023-05-12T00:55:46.943Z,98664.42
2023-05-12T00:58:13.972Z,98659.58
2023-05-12T01:00:41.377Z,98662.27
2023-05-12T01:03:09.320Z,98665.84
2023-05-12T01:06:15.149Z,98671.91
2023-05-12T01:08:43.379Z,98673.69
2023-05-12T01:11:10.273Z,98670.14
2023-05-12T01:13:39.971Z,98672.92
2023-05-12T01:16:10.084Z,98673.13
2023-05-12T01:18:39.447Z,98675.27
2023-05-12T01:21:07.059Z,98673.02
2023-05-12T01:23:43.085Z,98674.46
2023-05-12T01:26:10.827Z,98674.89
2023-05-12T01:28:39.468Z,98671.05
2023-05-12T01:31:08.547Z,98670.05
2023-05-12T01:33:36.594Z,98669.05
2023-05-12T01:36:04.178Z,98668.77
2023-05-12T01:38:31.217Z,98666.46
2023-05-12T01:40:58.455Z,98668.74
2023-05-12T01:43:25.289Z,98667.24
2023-05-12T01:45:52.345Z,98667.06
2023-05-12T01:48:19.630Z,98669.48
2023-05-12T01:50:46.530Z,98671.69
2023-05-12T01:53:13.623Z,98672.63
2023-05-12T01:55:40.830Z,98677.41
2023-05-12T01:58:07.972Z,98676.53
2023-05-12T02:00:35.060Z,98679.94
2023-05-12T02:03:02.914Z,98677.00
2023-05-12T02:05:30.130Z,98676.20
2023-05-12T02:07:57.146Z,98677.47
2023-05-12T02:10:24.271Z,98677.80
2023-05-12T02:12:51.069Z,98677.64
2023-05-12T02:15:18.007Z,98675.58
2023-05-12T02:17:45.445Z,98672.60
2023-05-12T02:20:13.024Z,98675.02
2023-05-12T02:22:39.952Z,98679.62
2023-05-12T02:25:07.387Z,98676.65
2023-05-12T02:27:34.502Z,98675.13
2023-05-12T02:30:01.563Z,98680.39
2023-05-12T02:32:28.935Z,98680.03
2023-05-12T02:34:56.983Z,98681.86
2023-05-12T02:37:24.114Z,98682.84
2023-05-12T02:39:51.017Z,98680.63
2023-05-12T02:42:17.933Z,98679.16
2023-05-12T02:44:44.974Z,98678.92
2023-05-12T02:47:12.342Z,98680.83
2023-05-12T02:49:39.519Z,98680.14
2023-05-12T02:52:06.858Z,98680.13
2023-05-12T02:54:34.194Z,98675.22
2023-05-12T02:57:05.392Z,98678.48
2023-05-12T02:59:32.606Z,98679.86
2023-05-12T03:01:59.927Z,98678.78
2023-05-12T03:04:27.003Z,98676.24
2023-05-12T03:06:53.859Z,98674.77
2023-05-12T03:09:21.455Z,98676.77
2023-05-12T03:11:48.819Z,98678.35
2023-05-12T03:14:15.946Z,98674.02
2023-05-12T03:16:43.264Z,98677.06
2023-05-12T03:19:10.320Z,98677.02
2023-05-12T03:21:37.645Z,98677.00
2023-05-12T03:24:05.205Z,98680.36
2023-05-12T03:26:32.182Z,98681.17
2023-05-12T03:28:59.405Z,98682.02
2023-05-12T03:31:26.401Z,98684.31
2023-05-12T03:33:53.481Z,98683.97
2023-05-12T03:36:20.226Z,98681.55
2023-05-12T03:38:47.160Z,98687.06
2023-05-12T03:41:14.256Z,98693.02
2023-05-12T03:43:41.304Z,98689.28
2023-05-12T03:46:08.544Z,98687.66
2023-05-12T03:48:35.575Z,98685.38
2023-05-12T03:51:02.601Z,98687.02
2023-05-12T03:53:30.028Z,98685.94
2023-05-12T03:55:57.135Z,98685.96
2023-05-12T03:58:24.945Z,98689.73
2023-05-12T04:00:52.219Z,98694.94
2023-05-12T04:03:19.147Z,98694.79
2023-05-12T04:05:46.207Z,98697.98
2023-05-12T04:08:13.061Z,98697.42
2023-05-12T04:10:41.461Z,98699.20
2023-05-12T04:13:09.197Z,98700.36
2023-05-12T04:15:36.123Z,98700.13
2023-05-12T04:18:04.348Z,98698.69
2023-05-12T04:20:31.775Z,98700.52
2023-05-12T04:22:58.822Z,98700.17
2023-05-12T04:25:27.054Z,98701.81
2023-05-12T04:27:54.337Z,98699.76
2023-05-12T04:30:22.542Z,98701.15
2023-05-12T04:32:49.786Z,98699.70
2023-05-12T04:35:17.148Z,98701.02
2023-05-12T04:37:44.246Z,98703.91
2023-05-12T04:40:11.184Z,98704.64
2023-05-12T04:42:38.131Z,98707.31
2023-05-12T04:45:05.995Z,98705.70
2023-05-12T04:47:33.657Z,98708.70
2023-05-12T04:50:00.739Z,98708.39
2023-05-12T04:52:27.852Z,98707.54
2023-05-12T04:54:55.063Z,98709.44
2023-05-12T04:57:21.939Z,98705.62
2023-05-12T04:59:49.207Z,98706.91
2023-05-12T05:02:17.017Z,98703.99
2023-05-12T05:04:43.800Z,98709.89
2023-05-12T05:07:11.299Z,98709.73
2023-05-12T05:09:38.260Z,98710.89
2023-05-12T05:12:07.273Z,98710.20
2023-05-12T05:14:34.934Z,98713.39
2023-05-12T05:17:01.883Z,98714.98
2023-05-12T05:19:44.792Z,98715.77
2023-05-12T05:22:17.179Z,98713.52
2023-05-12T05:24:44.213Z,98714.37
2023-05-12T05:27:11.219Z,98714.08
2023-05-12T05:29:38.715Z,98711.24
2023-05-12T05:32:06.123Z,98711.24
2023-05-12T05:34:33.397Z,98713.91
2023-05-12T05:37:00.498Z,98712.55
2023-05-12T05:39:31.050Z,98717.55
2023-05-12T05:41:58.585Z,98716.79
2023-05-12T05:44:26.191Z,98719.89
2023-05-12T05:46:53.468Z,98718.74
2023-05-12T05:49:20.602Z,98713.35
2023-05-12T05:51:47.757Z,98717.55
2023-05-12T05:54:15.000Z,98720.23
2023-05-12T05:56:42.588Z,98721.24
2023-05-12T05:59:10.206Z,98723.45
2023-05-12T06:01:37.485Z,98722.44
2023-05-12T06:04:04.798Z,98723.90
2023-05-12T06:06:32.344Z,98727.23
2023-05-12T06:08:59.322Z,98723.88
2023-05-12T06:11:26.469Z,98723.23
2023-05-12T06:13:53.712Z,98725.08
2023-05-12T06:16:20.710Z,98724.52
2023-05-12T06:18:48.204Z,98726.55
2023-05-12T06:21:15.275Z,98728.30
2023-05-12T06:23:42.576Z,98726.24
2023-05-12T06:26:09.933Z,98728.67
2023-05-12T06:28:37.059Z,98729.73
2023-05-12T06:31:08.746Z,98729.68
2023-05-12T06:33:36.097Z,98725.90
2023-05-12T06:36:03.204Z,98726.69
2023-05-12T06:38:30.215Z,98725.48
2023-05-12T06:40:57.237Z,98728.25
2023-05-12T06:43:24.582Z,98726.94
2023-05-12T06:45:52.033Z,98723.54
2023-05-12T06:48:19.011Z,98729.15
2023-05-12T06:50:46.070Z,98721.38
2023-05-12T06:53:12.921Z,98721.20
2023-05-12T06:55:40.903Z,98722.40
2023-05-12T06:58:08.047Z,98723.90
2023-05-12T07:00:35.474Z,98722.95
2023-05-12T07:03:02.834Z,98722.58
2023-05-12T07:05:29.797Z,98724.41
2023-05-12T07:07:57.110Z,98717.60
2023-05-12T07:10:23.953Z,98718.17
2023-05-12T07:12:51.456Z,98720.72
2023-05-12T07:15:18.851Z,98716.30
2023-05-12T07:17:46.267Z,98721.17
2023-05-12T07:20:14.024Z,98722.87
2023-05-12T07:22:41.339Z,98725.21
2023-05-12T07:25:09.041Z,98724.55
2023-05-12T07:27:36.044Z,98717.28
2023-05-12T07:30:03.584Z,98714.97
2023-05-12T07:32:30.602Z,98718.89
2023-05-12T07:34:57.877Z,98719.44
2023-05-12T07:37:25.390Z,98718.66
2023-05-12T07:39:52.699Z,98722.46
2023-05-12T07:42:19.779Z,98718.20
2023-05-12T07:44:47.468Z,98721.19
2023-05-12T07:47:14.835Z,98723.05
2023-05-12T07:49:41.948Z,98720.96
2023-05-12T07:52:09.171Z,98723.68
2023-05-12T07:54:36.180Z,98722.00
2023-05-12T07:57:03.262Z,98724.11
2023-05-12T07:59:30.420Z,98724.10
2023-05-12T08:01:57.829Z,98721.98
2023-05-12T08:04:24.976Z,98723.71
2023-05-12T08:06:51.951Z,98726.79
2023-05-12T08:09:21.672Z,98730.11
2023-05-12T08:11:51.770Z,98729.34
2023-05-12T08:14:19.731Z,98729.36
2023-05-12T08:16:47.396Z,98728.21
2023-05-12T08:19:14.615Z,98729.74
2023-05-12T08:21:42.258Z,98735.38
2023-05-12T08:24:09.649Z,98733.98
2023-05-12T08:26:36.806Z,98737.50
2023-05-12T08:29:05.103Z,98739.78
2023-05-12T08:31:32.849Z,98734.86
2023-05-12T08:34:09.845Z,98730.56
2023-05-12T08:36:41.333Z,98737.05
2023-05-12T08:39:10.753Z,98737.13
2023-05-12T08:41:44.077Z,98741.52
2023-05-12T08:44:15.408Z,98743.52
2023-05-12T08:46:43.713Z,98741.70
2023-05-12T08:49:12.825Z,98742.70
2023-05-12T08:51:42.581Z,98737.60
2023-05-12T08:54:11.459Z,98737.80
2023-05-12T08:59:10.716Z,98737.63
2023-05-12T09:01:38.785Z,98730.57
2023-05-12T09:04:06.634Z,98730.05
2023-05-12T09:06:34.495Z,98724.14
2023-05-12T09:09:01.840Z,98729.15
2023-05-12T09:11:29.136Z,98734.12
2023-05-12T09:14:03.615Z,98731.32
2023-05-12T09:16:34.267Z,98728.03
2023-05-12T09:19:04.574Z,98726.79
2023-05-12T09:21:34.451Z,98731.25
2023-05-12T09:24:07.009Z,98725.48
2023-05-12T09:26:48.513Z,98727.80
2023-05-12T09:29:27.771Z,98726.63
2023-05-12T09:31:59.949Z,98725.39
2023-05-12T09:34:29.628Z,98720.67
2023-05-12T09:37:01.633Z,98722.99
2023-05-12T09:39:29.282Z,98720.08
2023-05-12T09:41:56.718Z,98723.05
2023-05-12T09:44:25.162Z,98716.41
2023-05-12T09:46:53.473Z,98717.67
2023-05-12T09:49:21.121Z,98726.95
2023-05-12T09:52:01.704Z,98721.92
2023-05-12T09:54:33.842Z,98713.36
2023-05-12T09:57:05.870Z,98716.40
2023-05-12T09:59:34.894Z,98709.90
2023-05-12T10:02:04.877Z,98716.30
2023-05-12T10:04:45.779Z,98712.98
2023-05-12T10:07:15.095Z,98708.63
2023-05-12T10:09:44.431Z,98705.41
2023-05-12T10:12:12.110Z,98707.02
2023-05-12T10:14:39.191Z,98708.44
2023-05-12T10:17:07.830Z,98704.83
2023-05-12T10:19:36.279Z,98706.98
2023-05-12T10:22:04.505Z,98706.14
2023-05-12T10:24:32.434Z,98703.46
2023-05-12T10:27:01.720Z,98708.42
2023-05-12T10:29:44.561Z,98708.66
2023-05-12T10:32:20.483Z,98700.28
2023-05-12T10:34:47.590Z,98705.30
2023-05-12T10:37:14.671Z,98705.80
2023-05-12T10:39:53.111Z,98708.52
2023-05-12T10:42:27.257Z,98702.37
2023-05-12T10:44:55.907Z,98703.88
2023-05-12T10:47:36.858Z,98702.81
2023-05-12T10:50:04.178Z,98702.70
2023-05-12T10:52:31.559Z,98705.11
2023-05-12T10:55:04.208Z,98697.94
2023-05-12T10:57:33.135Z,98707.39
2023-05-12T11:00:08.473Z,98703.69
2023-05-12T11:02:37.002Z,98707.59
2023-05-12T11:05:13.271Z,98700.19
2023-05-12T11:07:41.813Z,98700.84
2023-05-12T11:10:10.620Z,98703.08
2023-05-12T11:12:38.323Z,98700.98
2023-05-12T11:15:07.601Z,98698.37
2023-05-12T11:17:39.603Z,98710.71
2023-05-12T11:20:07.674Z,98708.55
2023-05-12T11:22:34.789Z,98706.42
2023-05-12T11:25:10.679Z,98700.64
2023-05-12T11:27:42.910Z,98697.05
2023-05-12T11:30:11.588Z,98698.99
2023-05-12T11:32:38.884Z,98703.92
2023-05-12T11:35:17.652Z,98704.11
2023-05-12T11:37:45.887Z,98711.41
2023-05-12T11:40:20.820Z,98714.73
2023-05-12T11:42:52.044Z,98707.15
2023-05-12T11:45:24.863Z,98719.23
2023-05-12T11:48:07.450Z,98712.62
2023-05-12T11:50:38.239Z,98713.98
2023-05-12T11:53:05.902Z,98708.92
2023-05-12T11:55:34.460Z,98715.08
2023-05-12T11:58:03.544Z,98709.70
2023-05-12T12:00:35.463Z,98714.70
2023-05-12T12:03:13.366Z,98713.33
2023-05-12T12:05:42.378Z,98713.02
2023-05-12T12:08:13.663Z,98709.00
2023-05-12T12:10:45.713Z,98709.88
2023-05-12T12:13:13.883Z,98706.55
2023-05-12T12:15:41.172Z,98703.27
2023-05-12T12:18:08.198Z,98711.80
2023-05-12T12:20:35.120Z,98704.90
2023-05-12T12:23:02.203Z,98705.36
2023-05-12T12:25:29.353Z,98707.34
2023-05-12T12:27:56.324Z,98713.35
2023-05-12T12:30:23.299Z,98713.38
2023-05-12T12:32:50.624Z,98715.49
2023-05-12T12:35:18.124Z,98716.16
2023-05-12T12:37:52.422Z,98716.42
2023-05-12T12:40:20.512Z,98718.98
2023-05-12T12:42:47.752Z,98723.48
2023-05-12T12:45:14.822Z,98729.41
2023-05-12T12:47:41.845Z,98711.14
2023-05-12T12:50:10.983Z,98713.46
2023-05-12T12:52:38.975Z,98722.44
2023-05-12T12:55:07.732Z,98722.63
2023-05-12T12:57:35.152Z,98723.70
2023-05-12T13:00:03.517Z,98725.91
2023-05-12T13:02:30.561Z,98712.95
2023-05-12T13:04:57.602Z,98720.29
2023-05-12T13:07:26.289Z,98713.05
2023-05-12T13:09:53.336Z,98717.23
2023-05-12T13:12:20.520Z,98719.59
2023-05-12T13:14:47.875Z,98725.19
2023-05-12T13:17:14.912Z,98723.96
2023-05-12T13:19:42.748Z,98720.67
2023-05-12T13:22:10.951Z,98722.45
2023-05-12T13:24:38.425Z,98718.23
2023-05-12T13:27:09.458Z,98716.73
2023-05-12T13:29:37.593Z,98716.92
2023-05-12T13:32:05.267Z,98715.54
2023-05-12T13:34:33.029Z,98713.33
2023-05-12T13:37:01.547Z,98708.17
2023-05-12T13:39:28.546Z,98707.55
2023-05-12T13:41:55.585Z,98703.27
2023-05-12T13:44:22.704Z,98700.34
2023-05-12T13:46:49.685Z,98701.02
2023-05-12T13:49:19.067Z,98704.23
2023-05-12T13:51:46.235Z,98706.52
2023-05-12T13:54:13.350Z,98701.61
2023-05-12T13:56:40.308Z,98705.84
2023-05-12T13:59:09.309Z,98707.45
2023-05-12T14:01:36.858Z,98704.48
2023-05-12T14:04:04.448Z,98708.20
2023-05-12T14:06:32.560Z,98702.91
2023-05-12T14:08:59.920Z,98707.33
2023-05-12T14:11:27.315Z,98711.45
2023-05-12T14:13:54.203Z,98710.05
2023-05-12T14:16:21.761Z,98704.65
2023-05-12T14:18:48.850Z,98705.82
2023-05-12T14:21:17.052Z,98700.57
2023-05-12T14:23:44.511Z,98704.70
2023-05-12T14:26:11.596Z,98705.58
2023-05-12T14:28:39.366Z,98709.76
2023-05-12T14:31:06.575Z,98712.80
2023-05-12T14:33:33.691Z,98703.30
2023-05-12T14:36:07.112Z,98705.42
2023-05-12T14:38:35.372Z,98706.23
2023-05-12T14:41:02.782Z,98696.17
2023-05-12T14:43:29.633Z,98700.84
2023-05-12T14:45:56.622Z,98701.13
2023-05-12T14:48:30.637Z,98707.55
2023-05-12T14:50:58.034Z,98711.05
2023-05-12T14:53:25.614Z,98715.58
2023-05-12T14:55:52.935Z,98716.83
2023-05-12T14:58:21.847Z,98715.48
2023-05-12T15:00:51.713Z,98716.04
2023-05-12T15:03:21.676Z,98710.33
2023-05-12T15:08:21.987Z,98714.34
2023-05-12T15:10:50.016Z,98720.35
2023-05-12T15:13:20.618Z,98714.98
2023-05-12T15:15:48.226Z,98718.30
2023-05-12T15:18:15.763Z,98720.41
2023-05-12T15:20:43.467Z,98717.98
2023-05-12T15:23:10.398Z,98719.27
2023-05-12T15:25:42.024Z,98718.61
2023-05-12T15:28:09.632Z,98718.33
2023-05-12T15:30:36.797Z,98714.73
2023-05-12T15:33:04.854Z,98725.52
2023-05-12T15:35:33.195Z,98720.14
2023-05-12T15:38:00.440Z,98718.39
2023-05-12T15:40:27.494Z,98718.86
2023-05-12T15:42:55.126Z,98722.12
2023-05-12T15:45:22.619Z,98718.70
2023-05-12T15:47:50.154Z,98719.85
2023-05-12T15:50:20.325Z,98722.34
2023-05-12T15:52:47.747Z,98723.77
2023-05-12T15:55:15.368Z,98718.25
2023-05-12T15:57:42.822Z,98721.67
2023-05-12T16:00:11.318Z,98718.13
2023-05-12T16:02:39.253Z,98718.25
2023-05-12T16:05:07.609Z,98720.92
2023-05-12T16:07:35.409Z,98719.80
2023-05-12T16:10:03.821Z,98719.55
2023-05-12T16:12:31.271Z,98718.70
2023-05-12T16:14:58.969Z,98716.30
2023-05-12T16:17:26.370Z,98717.61
2023-05-12T16:19:54.043Z,98718.81
2023-05-12T16:22:21.438Z,98719.95
2023-05-12T16:24:59.713Z,98719.36
2023-05-12T16:27:39.684Z,98722.84
2023-05-12T16:30:11.626Z,98724.77
2023-05-12T16:32:38.981Z,98728.70
2023-05-12T16:35:07.866Z,98725.27
2023-05-12T16:37:35.002Z,98734.36
2023-05-12T16:40:02.055Z,98740.75
2023-05-12T16:42:29.399Z,98739.36
2023-05-12T16:44:56.634Z,98739.66
2023-05-12T16:47:24.106Z,98741.15
2023-05-12T16:49:54.533Z,98743.48
2023-05-12T16:52:21.725Z,98741.55
2023-05-12T16:55:02.186Z,98748.57
2023-05-12T16:57:29.460Z,98746.47
2023-05-12T16:59:56.828Z,98745.40
2023-05-12T17:02:24.070Z,98749.38
2023-05-12T17:04:51.752Z,98743.05
2023-05-12T17:07:19.217Z,98752.35
2023-05-12T17:09:46.433Z,98754.95
2023-05-12T17:12:14.671Z,98750.64
2023-05-12T17:14:42.263Z,98751.17
2023-05-12T17:17:10.433Z,98751.11
2023-05-12T17:19:42.640Z,98753.55
2023-05-12T17:22:09.765Z,98755.91
2023-05-12T17:24:37.422Z,98754.48
2023-05-12T17:27:04.916Z,98756.30
2023-05-12T17:29:32.175Z,98758.94
2023-05-12T17:32:00.660Z,98764.98
2023-05-12T17:34:27.936Z,98764.08
2023-05-12T17:36:55.004Z,98769.80
2023-05-12T17:39:23.541Z,98771.61
2023-05-12T17:41:50.776Z,98773.77
2023-05-12T17:44:17.700Z,98775.56
2023-05-12T17:46:45.003Z,98773.98
2023-05-12T17:49:12.099Z,98776.61
2023-05-12T17:51:39.561Z,98778.20
2023-05-12T17:54:06.787Z,98781.26
2023-05-12T17:56:33.939Z,98778.14
2023-05-12T17:59:01.136Z,98784.91
2023-05-12T18:01:28.201Z,98787.54
2023-05-12T18:03:55.684Z,98785.84
2023-05-12T18:06:22.937Z,98786.86
2023-05-12T18:08:49.984Z,98782.11
2023-05-12T18:11:17.441Z,98784.27
2023-05-12T18:13:44.482Z,98787.74
2023-05-12T18:16:21.570Z,98791.43
2023-05-12T18:18:55.274Z,98793.09
2023-05-12T18:21:22.739Z,98789.88
2023-05-12T18:23:49.760Z,98793.92
2023-05-12T18:26:25.301Z,98791.02
2023-05-12T18:29:03.286Z,98798.02
2023-05-12T18:31:30.319Z,98802.62
2023-05-12T18:33:57.359Z,98808.08
2023-05-12T18:36:24.549Z,98810.95
2023-05-12T18:38:52.020Z,98810.92
2023-05-12T18:41:19.865Z,98814.56
2023-05-12T18:43:47.113Z,98810.13
2023-05-12T18:46:14.550Z,98817.17
2023-05-12T18:48:42.134Z,98819.59
2023-05-12T18:51:09.882Z,98821.05
2023-05-12T18:53:37.041Z,98823.69
2023-05-12T18:56:04.281Z,98826.23
2023-05-12T18:58:31.232Z,98827.73
2023-05-12T19:00:58.246Z,98826.57
2023-05-12T19:03:25.423Z,98831.88
2023-05-12T19:05:52.776Z,98831.12
2023-05-12T19:08:20.250Z,98828.95
2023-05-12T19:10:48.601Z,98827.65
2023-05-12T19:13:15.931Z,98832.76
2023-05-12T19:15:43.125Z,98838.91
2023-05-12T19:18:10.364Z,98836.04
2023-05-12T19:20:38.103Z,98837.34
2023-05-12T19:23:05.585Z,98839.05
2023-05-12T19:25:32.905Z,98840.42
2023-05-12T19:28:00.726Z,98840.39
2023-05-12T19:30:29.335Z,98836.85
2023-05-12T19:32:57.200Z,98844.80
2023-05-12T19:35:24.995Z,98850.66
2023-05-12T19:37:51.964Z,98853.13
2023-05-12T19:40:19.370Z,98852.95
2023-05-12T19:42:46.805Z,98854.41
2023-05-12T19:45:14.282Z,98854.00
2023-05-12T19:47:42.273Z,98855.23
2023-05-12T19:50:10.169Z,98857.45
2023-05-12T19:52:37.799Z,98856.61
2023-05-12T19:55:06.815Z,98855.16
2023-05-12T19:57:34.414Z,98857.23
2023-05-12T20:00:01.527Z,98856.68
2023-05-12T20:02:31.526Z,98859.63
2023-05-12T20:05:02.178Z,98857.13
2023-05-12T20:07:30.167Z,98858.20
2023-05-12T20:09:57.457Z,98857.67
2023-05-12T20:12:24.912Z,98858.92
2023-05-12T20:14:51.960Z,98863.55
2023-05-12T20:17:19.329Z,98867.75
2023-05-12T20:19:46.571Z,98872.31
2023-05-12T20:22:13.785Z,98873.05
2023-05-12T20:24:40.855Z,98878.60
2023-05-12T20:27:08.485Z,98890.88
2023-05-12T20:29:35.562Z,98894.95
2023-05-12T20:32:02.964Z,98892.83
2023-05-12T20:34:30.377Z,98895.69
2023-05-12T20:36:57.853Z,98895.52
2023-05-12T20:39:25.206Z,98893.45
2023-05-12T20:41:52.884Z,98889.35
2023-05-12T20:44:20.965Z,98893.48
2023-05-12T20:46:48.556Z,98882.77
2023-05-12T20:49:15.499Z,98889.96
2023-05-12T20:51:42.736Z,98888.31
2023-05-12T20:54:09.704Z,98894.39
2023-05-12T20:56:37.153Z,98899.20
2023-05-12T20:59:04.364Z,98900.92
2023-05-12T21:01:31.570Z,98905.29
2023-05-12T21:03:58.524Z,98907.69
2023-05-12T21:06:26.048Z,98907.69
2023-05-12T21:08:52.956Z,98907.92
2023-05-12T21:11:20.139Z,98905.78
2023-05-12T21:13:48.779Z,98906.62
2023-05-12T21:16:16.953Z,98910.11
2023-05-12T21:18:44.292Z,98909.48
2023-05-12T21:21:11.741Z,98907.59
2023-05-12T21:23:38.719Z,98912.10
2023-05-12T21:26:05.805Z,98910.19
2023-05-12T21:28:32.801Z,98910.81
2023-05-12T21:30:59.755Z,98912.56
2023-05-12T21:33:26.878Z,98911.53
2023-05-12T21:35:54.230Z,98917.83
2023-05-12T21:38:21.220Z,98917.90
2023-05-12T21:40:56.514Z,98918.95
2023-05-12T21:43:23.918Z,98926.47
2023-05-12T21:45:51.149Z,98928.98
2023-05-12T21:48:18.510Z,98932.06
2023-05-12T21:50:46.072Z,98932.20
2023-05-12T21:53:13.215Z,98935.23
2023-05-12T21:55:41.756Z,98936.70
2023-05-12T21:58:09.533Z,98937.19
2023-05-12T22:00:36.421Z,98937.58
2023-05-12T22:03:04.150Z,98935.95
2023-05-12T22:05:32.244Z,98935.32
2023-05-12T22:07:59.589Z,98936.71
2023-05-12T22:10:27.330Z,98936.51
2023-05-12T22:12:54.548Z,98940.81
2023-05-12T22:15:22.389Z,98943.73
2023-05-12T22:17:49.808Z,98942.97
2023-05-12T22:20:17.585Z,98945.77
2023-05-12T22:22:44.981Z,98943.02
2023-05-12T22:25:12.160Z,98951.02
2023-05-12T22:27:39.031Z,98948.21
2023-05-12T22:30:07.022Z,98945.96
2023-05-12T22:32:34.098Z,98946.14
2023-05-12T22:35:01.296Z,98947.77
2023-05-12T22:37:28.881Z,98946.31
2023-05-12T22:39:55.932Z,98944.98
2023-05-12T22:42:22.854Z,98947.89
2023-05-12T22:44:50.445Z,98945.16
2023-05-12T22:47:17.900Z,98945.08
2023-05-12T22:49:44.889Z,98945.56
2023-05-12T22:52:11.968Z,98945.56
2023-05-12T22:54:39.294Z,98950.47
2023-05-12T22:57:06.459Z,98952.64
2023-05-12T22:59:33.615Z,98952.52
2023-05-12T23:02:00.856Z,98950.79
2023-05-12T23:04:27.837Z,98951.65
2023-05-12T23:06:55.125Z,98951.85
2023-05-12T23:09:21.968Z,98952.36
2023-05-12T23:11:48.859Z,98952.83
2023-05-12T23:14:15.964Z,98956.33
2023-05-12T23:16:43.080Z,98955.61
2023-05-12T23:19:10.114Z,98953.44
2023-05-12T23:21:36.986Z,98950.09
2023-05-12T23:24:04.485Z,98953.02
2023-05-12T23:26:31.739Z,98950.63
2023-05-12T23:29:03.679Z,98950.36
2023-05-12T23:31:36.541Z,98952.75
2023-05-12T23:34:05.237Z,98949.98
2023-05-12T23:36:35.762Z,98949.67
2023-05-12T23:39:08.848Z,98947.15
2023-05-12T23:41:37.408Z,98942.38
2023-05-12T23:44:13.015Z,98945.75
2023-05-12T23:46:39.954Z,98946.36
2023-05-12T23:49:07.499Z,98944.15
2023-05-12T23:51:35.221Z,98942.98
2023-05-12T23:54:02.060Z,98941.00
2023-05-12T23:56:28.904Z,98940.44
2023-05-12T23:58:55.644Z,98938.77
